Bookmark and Share
Track history (hours):
 

Bernard A

Last reported at 2014-Apr-17 04:33 UTC. Time now 2014-Apr-20 11:48 UTC.
Position N 35°51' W 006°03'.

Length 184 m; draft 9 m.

Type: Ship (hazmat cat A). MMSI: 271040008.

NotesDate/timePositionNaut miles runAvg speedWind from/ knotsBaromVisibWave heightAir tempDewpointWater temp
2014-Apr-17 04:33N 35°51' W 006°03'1312.8
2014-Apr-17 03:33N 35°56' W 005°48'1313.5
2014-Apr-17 02:33N 35°59' W 005°32'1111.0
2014-Apr-17 01:33N 36°07' W 005°23'2 1.9
2014-Apr-17 00:31N 36°08' W 005°25'0 0.0
2014-Apr-16 23:31N 36°08' W 005°25'0 0.0
2014-Apr-16 22:31N 36°08' W 005°25'0 0.0
2014-Apr-16 21:31N 36°08' W 005°25'0 0.0
2014-Apr-16 20:31N 36°08' W 005°25'0 0.0
2014-Apr-16 19:31N 36°08' W 005°25'0 0.0
2014-Apr-16 18:28N 36°08' W 005°25'0 0.0
2014-Apr-16 17:31N 36°08' W 005°25'0 0.0
2014-Apr-16 16:31N 36°08' W 005°25'0 0.0
2014-Apr-16 15:31N 36°08' W 005°25'0 0.0
2014-Apr-16 14:31N 36°08' W 005°25'0 0.0
2014-Apr-16 13:28N 36°08' W 005°25'0 0.0
2014-Apr-16 12:31N 36°08' W 005°25'0 0.0
2014-Apr-16 11:31N 36°08' W 005°25'0 0.0
2014-Apr-16 10:31N 36°08' W 005°25'0 0.0
2014-Apr-16 09:31N 36°08' W 005°25'0 0.0
2014-Apr-16 08:31N 36°08' W 005°25'0 0.1
2014-Apr-16 07:33N 36°08' W 005°25'5 4.9
2014-Apr-16 06:33N 36°05' W 005°20'3 3.0
2014-Apr-16 05:33N 36°04' W 005°17'1 1.3
2014-Apr-16 04:33N 36°04' W 005°19'5 4.6
2014-Apr-16 03:33N 36°05' W 005°13'10 9.6
2014-Apr-16 02:33N 36°04' W 005°01'1110.6
2014-Apr-16 01:33N 35°60' W 005°13'1111.4
2014-Apr-16 00:33N 35°57' W 005°27'16 0.8
2014-Apr-15 03:33N 35°54' W 005°46'  
2014-Apr-09 21:25N 10°04' W 017°02'1314.8
2014-Apr-09 20:34N 09°55' W 016°53'1515.3
2014-Apr-09 19:33N 09°45' W 016°41'1515.1
2014-Apr-09 18:34N 09°34' W 016°30'1514.8
2014-Apr-09 17:33N 09°24' W 016°19'1514.8
2014-Apr-09 16:34N 09°14' W 016°09'3214.6
2014-Apr-09 14:21N 08°52' W 015°45'  

Dump ship's entire track history

sailing weather and tide predictions

Bernard A — TCWN3 — position and weather